메인 페이지
METAR-TAF:

METAR-TAF

공항 :

평택, 대한민국

캠프 험프리스

위도: 36-56N, 경도: 127-00E, 고도: 16m

현재 날씨관측

예보는 38분 전, 10:56시(UTC)에 발표되었습니다.
서북서6kt
온도 1°C
습도 51%
기압 1023 hPa
시정: 16.1km
맑음

METAR: RKSG 201056Z AUTO 30006KT 10SM CLR 01/M08 A3022 RMK AO2 SLP238 T00111084 PWINO $

시각: 20:34 (11:34 UTC)

예보

예보는 2 시간 18분 전, 09:16시(UTC)에 발표되었습니다.
예보 대상 시간: 20일 09시부터 21일 10시까지 (UTC)
서북서9kt
시정 10km 이상
고도 17000ft 상공 구름 많음

TAF: RKSG 200916Z 2009/2110 30009KT 9999 BKN170 QNH3018INS TX07/2104Z TNM05/2019Z

4,000개 이상의 공항 관측 자료 및 예보 (METAR 및 TAF 보고).

지도상에서 검색 가능한 기상관측소가 노란 점과 빨간 점으로 표시되어 있습니다.

기상관측소 명을 보려면 표시 위로 마우스를 이동하세요.

날씨 관측과 예보를 보려면 클릭하세요.

지도 변경 : 확대하려면 엑스 표시가 있는 녹색 버튼, 축소하려면 빼기 표시가 있는 녹색 버튼, 다음 페이지의 지도를 보려면 녹색 화살표를 클릭하세요.


METAR-TAF: